logo
Search for airport 
image banner adimage banner adimage banner ad
image banner ad

EDTK - Sinsheim

Located in , Germany

ICAO - EDTK, IATA - QCA

Data provided by Airmate  

General information

Coordinates: N49°14'54" E8°53'41"
Elevation is 519 feet MSL.
Magnetic variation is 2.0000° East
View others Airports in Baden-Württemberg

Operational data

Special qualification required
Current time UTC:
Current local time:
Weather at : EDFM - Mannheim City ( 37 km )
METAR: EDFM 171250Z 22004KT 180V260 CAVOK 24/13 Q1021
TAF: TAF EDFM 171100Z 1712/1721 25005KT 9999 SCT040 BECMG 1715/1718 32003KT
View NOTAMs / SUP AIP / TFR affecting this airport [VIEW]
Communications frequencies: [VIEW]

Runways:

RWY identifierQFULength (ft)Width (ft)SurfaceLDA (ft)
12120°335398GRASS2598
30300°335398GRASS2598

Airport contact information

Address: Germany

Other aviation service providers

Aviation club (not for profit)

Akademische Fliegergruppe An Der Universität Karlsruhe E.V.

Akademische Fliegergruppe An Der Universität Karlsruhe E.V.

Flugsportring Kraichgau E.V. Sinsheim

Flugsportring Kraichgau E.V. Sinsheim

Satellite view of EDTK